Time;durP1;ratioP1;P1;durP2;ratioP2;P2;SDS_P1;SDS_P2;PMS_P1;PMS_P2;Temp;Humidity;BMP_temperature;BMP_pressure;BME280_temperature;BME280_humidity;BME280_pressure;Samples;Min_cycle;Max_cycle;Signal;HPM_P1;HPM_P2
2022/03/20 00:01:04;;;;;;;9.75;5.53;;;5.00;99.90;;;;;;4958351;29;20043;-59
2022/03/20 00:03:31;;;;;;;11.63;5.72;;;5.00;99.90;;;;;;4960865;28;20431;-58
2022/03/20 00:05:58;;;;;;;10.75;5.22;;;4.90;99.90;;;;;;4959222;28;20039;-58
2022/03/20 00:08:24;;;;;;;11.95;5.88;;;4.80;99.90;;;;;;4960779;28;20078;-58
2022/03/20 00:10:51;;;;;;;11.52;5.78;;;4.80;99.90;;;;;;4958537;29;20054;-57
2022/03/20 00:13:20;;;;;;;12.55;5.95;;;4.70;99.90;;;;;;4941531;29;20043;-58
2022/03/20 00:15:47;;;;;;;10.80;6.35;;;4.60;99.90;;;;;;4942811;29;20048;-58
2022/03/20 00:18:15;;;;;;;13.85;6.45;;;4.60;99.90;;;;;;4942432;29;20043;-58
2022/03/20 00:21:01;;;;;;;13.82;6.35;;;4.50;99.90;;;;;;4944730;29;20047;-57
2022/03/20 00:23:27;;;;;;;10.25;6.00;;;4.50;99.90;;;;;;4942447;29;20046;-58
2022/03/20 00:25:54;;;;;;;11.55;6.00;;;4.50;99.90;;;;;;4960807;28;20047;-58
2022/03/20 00:28:23;;;;;;;13.70;6.43;;;4.40;99.90;;;;;;4963575;29;20035;-58
2022/03/20 00:30:49;;;;;;;15.82;7.38;;;4.40;99.90;;;;;;4963003;29;20140;-57
2022/03/20 00:33:18;;;;;;;11.55;6.53;;;4.30;99.90;;;;;;4962951;28;20043;-58
2022/03/20 00:35:44;;;;;;;11.63;5.93;;;4.30;99.90;;;;;;4962648;29;20079;-58
2022/03/20 00:38:13;;;;;;;13.85;6.32;;;4.30;99.90;;;;;;4962815;29;20031;-58
2022/03/20 00:40:39;;;;;;;11.93;5.90;;;4.30;99.90;;;;;;4945474;29;20054;-57
2022/03/20 00:43:06;;;;;;;10.48;5.60;;;4.30;99.90;;;;;;4963607;28;20039;-57
2022/03/20 00:45:32;;;;;;;11.48;6.18;;;4.30;99.90;;;;;;4962842;29;20102;-58
2022/03/20 00:47:58;;;;;;;14.13;6.10;;;4.30;99.90;;;;;;4962599;29;20047;-58
2022/03/20 00:50:24;;;;;;;10.98;6.13;;;4.20;99.90;;;;;;4945825;29;20058;-58
2022/03/20 00:52:50;;;;;;;11.45;5.82;;;4.20;99.90;;;;;;4962346;29;20453;-57
2022/03/20 00:55:16;;;;;;;15.13;5.97;;;4.20;99.90;;;;;;4963781;29;20130;-58
2022/03/20 00:57:41;;;;;;;10.60;6.45;;;4.20;99.90;;;;;;4962200;28;20047;-58
2022/03/20 01:00:08;;;;;;;13.07;5.82;;;4.20;99.90;;;;;;4963435;29;20509;-57
2022/03/20 01:02:41;;;;;;;12.10;5.70;;;4.20;99.90;;;;;;4961449;29;20047;-58
2022/03/20 01:05:08;;;;;;;14.85;6.85;;;4.10;99.90;;;;;;4962120;29;20443;-57
2022/03/20 01:07:34;;;;;;;15.90;6.35;;;4.20;99.90;;;;;;4963032;28;20483;-58
2022/03/20 01:10:01;;;;;;;13.85;6.72;;;4.10;99.90;;;;;;4962120;28;20490;-58
2022/03/20 01:12:28;;;;;;;12.23;6.28;;;4.10;99.90;;;;;;4961975;28;20039;-58
2022/03/20 01:14:54;;;;;;;12.15;5.65;;;4.20;99.90;;;;;;4962080;28;20046;-58
2022/03/20 01:17:20;;;;;;;13.85;5.95;;;4.10;99.90;;;;;;4962763;28;20039;-58
2022/03/20 01:19:46;;;;;;;11.95;6.20;;;4.10;99.90;;;;;;4962126;28;20066;-58
2022/03/20 01:22:11;;;;;;;12.77;5.88;;;4.10;99.90;;;;;;4960644;29;20047;-58
2022/03/20 01:24:37;;;;;;;14.02;6.13;;;4.10;99.90;;;;;;4962584;29;20066;-58
2022/03/20 01:27:03;;;;;;;10.18;6.25;;;4.10;99.90;;;;;;4961874;29;20102;-58
2022/03/20 01:29:28;;;;;;;12.80;6.05;;;4.00;99.90;;;;;;4962911;29;20046;-57
2022/03/20 01:31:55;;;;;;;13.10;6.03;;;4.00;99.90;;;;;;4961815;29;20134;-58
2022/03/20 01:34:21;;;;;;;11.32;6.63;;;4.00;99.90;;;;;;4961488;29;20047;-58
2022/03/20 01:36:47;;;;;;;12.35;5.78;;;3.90;99.90;;;;;;4962104;28;20063;-58
2022/03/20 01:39:15;;;;;;;13.63;6.72;;;3.90;99.90;;;;;;4962233;29;20043;-59
2022/03/20 01:41:41;;;;;;;12.25;6.22;;;3.90;99.90;;;;;;4961227;29;20051;-58
2022/03/20 01:44:07;;;;;;;12.15;5.97;;;3.90;99.90;;;;;;4961848;28;20081;-58
2022/03/20 01:46:33;;;;;;;12.40;6.53;;;3.90;99.90;;;;;;4962711;29;20035;-58
2022/03/20 01:48:59;;;;;;;16.92;6.85;;;3.80;99.90;;;;;;4959972;29;20048;-58
2022/03/20 01:54:13;;;;;;;16.00;6.97;;;3.80;99.90;;;;;;4962214;29;20197;-58
2022/03/20 01:56:51;;;;;;;14.52;6.93;;;3.80;99.90;;;;;;4961663;28;20262;-58
2022/03/20 01:59:18;;;;;;;14.13;7.15;;;3.70;99.90;;;;;;4945108;29;20122;-59
2022/03/20 02:01:44;;;;;;;13.13;6.60;;;3.80;99.90;;;;;;4961284;28;20099;-58
2022/03/20 02:04:16;;;;;;;14.48;7.55;;;3.70;99.90;;;;;;4961233;29;20069;-58
2022/03/20 02:06:42;;;;;;;;;;;3.70;99.90;;;;;;4962409;28;20039;-58
2022/03/20 02:09:12;;;;;;;14.00;6.70;;;3.70;99.90;;;;;;4960244;29;19922;-58
2022/03/20 02:11:37;;;;;;;15.25;7.35;;;3.70;99.90;;;;;;4962007;28;20058;-58
2022/03/20 02:14:04;;;;;;;16.45;7.20;;;3.70;99.90;;;;;;4959880;29;20043;-58
2022/03/20 02:16:30;;;;;;;16.23;7.25;;;3.70;99.90;;;;;;4962155;28;20098;-58
2022/03/20 02:18:57;;;;;;;14.93;8.30;;;3.70;99.90;;;;;;4960810;28;20047;-58
2022/03/20 02:21:39;;;;;;;14.88;7.10;;;3.60;99.90;;;;;;4962357;28;20160;-58
2022/03/20 02:24:25;;;;;;;;;;;3.70;99.90;;;;;;4962474;28;20074;-58
2022/03/20 02:26:50;;;;;;;17.52;8.27;;;3.60;99.90;;;;;;4961042;29;19969;-58
2022/03/20 02:29:16;;;;;;;14.82;7.78;;;3.60;99.90;;;;;;4945085;29;20406;-58
2022/03/20 02:31:42;;;;;;;16.17;8.15;;;3.60;99.90;;;;;;4943635;29;20040;-58
2022/03/20 02:34:08;;;;;;;18.92;8.52;;;3.60;99.90;;;;;;4962384;28;20078;-58
2022/03/20 02:36:36;;;;;;;19.08;8.63;;;3.50;99.90;;;;;;4961368;28;20043;-59
2022/03/20 02:39:03;;;;;;;15.95;8.52;;;3.50;99.90;;;;;;4960391;29;20067;-58
2022/03/20 02:41:31;;;;;;;16.00;8.18;;;3.50;99.90;;;;;;4961753;28;20047;-58
2022/03/20 02:43:57;;;;;;;16.38;8.63;;;3.50;99.90;;;;;;4961217;28;20132;-58
2022/03/20 02:46:23;;;;;;;18.00;8.27;;;3.50;99.90;;;;;;4961798;29;20055;-58
2022/03/20 02:48:49;;;;;;;17.67;9.05;;;3.40;99.90;;;;;;4927633;29;20405;-58
2022/03/20 02:51:17;;;;;;;16.95;8.80;;;3.40;99.90;;;;;;4962148;28;20075;-58
2022/03/20 02:53:42;;;;;;;15.68;8.80;;;3.70;99.90;;;;;;4961316;29;20136;-58
2022/03/20 02:56:10;;;;;;;19.00;9.25;;;3.40;99.90;;;;;;4961611;28;20043;-58
2022/03/20 02:58:36;;;;;;;16.08;8.93;;;3.40;99.90;;;;;;4964135;29;20054;-58
2022/03/20 03:01:02;;;;;;;16.98;9.40;;;3.40;99.90;;;;;;4964610;29;20039;-58
2022/03/20 03:03:28;;;;;;;17.80;9.25;;;3.30;99.90;;;;;;4965491;29;20059;-58
2022/03/20 03:05:58;;;;;;;17.70;9.75;;;3.30;99.90;;;;;;4964313;29;20054;-59
2022/03/20 03:11:09;;;;;;;17.08;9.98;;;3.30;99.90;;;;;;4964735;29;20059;-58
2022/03/20 03:13:37;;;;;;;19.13;10.48;;;3.20;99.90;;;;;;4963189;29;20043;-58
2022/03/20 03:16:07;;;;;;;17.55;9.82;;;3.20;99.90;;;;;;4964855;28;20043;-58
2022/03/20 03:18:34;;;;;;;17.05;10.50;;;3.20;99.90;;;;;;4963923;28;20407;-58
2022/03/20 03:21:00;;;;;;;19.90;10.25;;;3.10;99.90;;;;;;4965438;28;20046;-58
2022/03/20 03:23:27;;;;;;;17.48;10.50;;;3.10;99.90;;;;;;4964258;28;20043;-58
2022/03/20 03:25:53;;;;;;;17.55;10.40;;;3.10;99.90;;;;;;4964848;28;20077;-58
2022/03/20 03:28:19;;;;;;;19.63;10.02;;;3.10;99.90;;;;;;4964561;28;20054;-57
2022/03/20 03:30:47;;;;;;;23.80;11.65;;;3.10;99.90;;;;;;4964255;28;20652;-58
2022/03/20 03:33:14;;;;;;;22.63;11.20;;;3.10;99.90;;;;;;4964807;28;20160;-58
2022/03/20 03:35:43;;;;;;;20.88;11.80;;;3.10;99.90;;;;;;4963834;28;20095;-58
2022/03/20 03:38:11;;;;;;;19.83;10.70;;;3.10;99.90;;;;;;4965229;28;20079;-57
2022/03/20 03:40:38;;;;;;;23.48;12.40;;;3.00;99.90;;;;;;4963759;28;20059;-55
2022/03/20 03:43:04;;;;;;;19.67;11.93;;;3.10;99.90;;;;;;4964690;28;20176;-58
2022/03/20 03:45:29;;;;;;;20.55;12.15;;;3.00;99.90;;;;;;4963930;28;20040;-58
2022/03/20 03:47:56;;;;;;;20.17;11.75;;;3.00;99.90;;;;;;4964079;28;20062;-58
2022/03/20 03:50:22;;;;;;;19.20;11.13;;;3.00;99.90;;;;;;4964623;28;20047;-58
2022/03/20 03:52:48;;;;;;;20.67;11.35;;;3.00;99.90;;;;;;4962396;28;20406;-58
2022/03/20 03:55:15;;;;;;;18.38;11.27;;;3.00;99.90;;;;;;4964880;28;20043;-57
2022/03/20 03:57:45;;;;;;;19.10;11.57;;;3.00;99.90;;;;;;4963410;28;20062;-58
2022/03/20 04:00:12;;;;;;;24.45;12.48;;;3.00;99.90;;;;;;4964157;28;20051;-58
2022/03/20 04:02:39;;;;;;;19.58;11.40;;;2.90;99.90;;;;;;4962148;29;20106;-58
2022/03/20 04:05:05;;;;;;;19.80;11.73;;;2.90;99.90;;;;;;4946361;29;20056;-58
2022/03/20 04:07:31;;;;;;;19.88;12.77;;;2.90;99.90;;;;;;4963924;28;20035;-58
2022/03/20 04:09:57;;;;;;;20.25;12.05;;;2.90;99.90;;;;;;4962529;28;20057;-58
2022/03/20 04:12:22;;;;;;;21.27;12.60;;;2.90;99.90;;;;;;4964569;29;21204;-58
2022/03/20 04:14:48;;;;;;;21.02;12.52;;;2.90;99.90;;;;;;4961795;28;20047;-58
2022/03/20 04:17:14;;;;;;;20.92;12.65;;;2.80;99.90;;;;;;4963780;28;20039;-58
2022/03/20 04:19:41;;;;;;;20.55;11.77;;;2.80;99.90;;;;;;4963374;28;20507;-58
2022/03/20 04:22:07;;;;;;;25.30;12.80;;;2.80;99.90;;;;;;4963196;29;20131;-57
2022/03/20 04:24:33;;;;;;;19.35;12.52;;;2.80;99.90;;;;;;4962316;29;20059;-58
2022/03/20 04:26:59;;;;;;;20.80;11.95;;;2.80;99.90;;;;;;4963057;29;20050;-58
2022/03/20 04:29:27;;;;;;;23.02;12.63;;;2.70;99.90;;;;;;4962698;29;20266;-58
2022/03/20 04:31:54;;;;;;;23.00;12.73;;;2.70;99.90;;;;;;4962742;28;20051;-58
2022/03/20 04:34:22;;;;;;;27.75;13.55;;;2.70;99.90;;;;;;4963897;28;20047;-58
2022/03/20 04:36:48;;;;;;;19.95;12.30;;;2.70;99.90;;;;;;4963259;28;20043;-58
2022/03/20 04:39:14;;;;;;;21.17;12.63;;;2.70;99.90;;;;;;4963114;29;20122;-58
2022/03/20 04:41:41;;;;;;;21.25;12.25;;;2.70;99.90;;;;;;4963629;29;20047;-58
2022/03/20 04:44:12;;;;;;;24.80;12.80;;;2.70;99.90;;;;;;4962591;29;20043;-58
2022/03/20 04:46:39;;;;;;;20.63;12.57;;;2.60;99.90;;;;;;4962340;29;20411;-58
2022/03/20 05:00:24;;;;;;;24.38;13.52;;;2.60;99.90;;;;;;4951979;28;20047;-58
2022/03/20 05:02:50;;;;;;;21.58;13.60;;;2.60;99.90;;;;;;4962884;29;20071;-58
2022/03/20 05:05:16;;;;;;;21.25;12.82;;;2.60;99.90;;;;;;4944882;29;20040;-58
2022/03/20 05:07:42;;;;;;;23.08;13.13;;;2.50;99.90;;;;;;4963346;29;20051;-58
2022/03/20 05:15:39;;;;;;;25.75;13.15;;;2.40;99.90;;;;;;4962574;29;20055;-58
2022/03/20 05:18:07;;;;;;;22.08;14.05;;;2.50;99.90;;;;;;4962289;28;20053;-58
2022/03/20 05:20:33;;;;;;;19.95;13.25;;;2.40;99.90;;;;;;4962576;28;20078;-58
2022/03/20 05:23:00;;;;;;;22.48;13.50;;;2.40;99.90;;;;;;4961607;29;20134;-58
2022/03/20 05:25:28;;;;;;;23.58;14.30;;;2.40;99.90;;;;;;4963235;28;20043;-58
2022/03/20 05:27:55;;;;;;;23.02;14.65;;;2.40;99.90;;;;;;4960984;29;20043;-58
2022/03/20 05:30:21;;;;;;;23.02;14.38;;;2.40;99.90;;;;;;4962295;28;20047;-57
2022/03/20 05:32:48;;;;;;;23.05;15.02;;;2.30;99.90;;;;;;4962602;28;20381;-58
2022/03/20 05:35:16;;;;;;;25.20;14.38;;;2.40;99.90;;;;;;4962159;28;20051;-58
2022/03/20 05:37:42;;;;;;;22.77;14.80;;;2.40;99.90;;;;;;4961465;29;20049;-58
2022/03/20 05:40:08;;;;;;;23.80;15.30;;;2.30;99.90;;;;;;4961314;28;20078;-58
2022/03/20 05:42:36;;;;;;;23.88;15.27;;;2.30;99.90;;;;;;4961419;29;20097;-58
2022/03/20 05:45:02;;;;;;;23.50;14.35;;;2.30;99.90;;;;;;4962003;29;20144;-57
2022/03/20 05:47:32;;;;;;;22.10;13.38;;;2.40;99.90;;;;;;4961895;28;20051;-58
2022/03/20 05:50:02;;;;;;;28.38;15.45;;;2.40;99.90;;;;;;4961044;29;20137;-58
2022/03/20 05:52:31;;;;;;;22.92;14.43;;;2.40;99.90;;;;;;4961734;28;20062;-58
2022/03/20 05:54:59;;;;;;;24.48;15.07;;;2.40;99.90;;;;;;4962702;28;20048;-58
2022/03/20 06:00:16;;;;;;;26.38;14.48;;;2.40;99.90;;;;;;4962186;29;20090;-58
2022/03/20 06:02:45;;;;;;;;;;;2.40;99.90;;;;;;4962612;28;20081;-58
2022/03/20 06:05:11;;;;;;;26.23;14.63;;;2.40;99.90;;;;;;4961396;28;19922;-58
2022/03/20 06:07:46;;;;;;;24.02;14.45;;;2.50;99.90;;;;;;4961275;29;20038;-58
2022/03/20 06:10:14;;;;;;;24.83;14.80;;;2.50;99.90;;;;;;4961037;28;20086;-58
2022/03/20 06:12:40;;;;;;;24.40;14.98;;;2.50;99.90;;;;;;4960930;29;20594;-58
2022/03/20 06:15:09;;;;;;;29.67;15.82;;;2.50;99.90;;;;;;4961751;28;20039;-57
2022/03/20 06:17:41;;;;;;;24.08;14.95;;;2.50;99.90;;;;;;4961344;28;20043;-57
2022/03/20 06:20:08;;;;;;;25.83;15.20;;;2.50;99.90;;;;;;4961991;28;20058;-57
2022/03/20 06:22:35;;;;;;;24.80;14.75;;;2.50;99.90;;;;;;4961342;28;20051;-57
2022/03/20 06:25:03;;;;;;;24.17;14.95;;;2.60;99.90;;;;;;4961059;29;20036;-58
2022/03/20 06:27:29;;;;;;;25.55;15.15;;;2.60;99.90;;;;;;4961076;29;20043;-60
2022/03/20 06:29:55;;;;;;;23.90;16.63;;;2.60;99.90;;;;;;4962157;29;20050;-59
2022/03/20 06:32:20;;;;;;;24.35;14.93;;;2.90;99.90;;;;;;4962411;28;20050;-58
2022/03/20 06:34:46;;;;;;;24.95;15.77;;;2.70;99.90;;;;;;4965405;28;20072;-58
2022/03/20 06:37:12;;;;;;;24.95;15.23;;;2.70;99.90;;;;;;4965664;28;20047;-58
2022/03/20 06:39:37;;;;;;;27.67;15.10;;;2.70;99.90;;;;;;4964856;29;20044;-59
2022/03/20 06:42:03;;;;;;;26.08;15.48;;;2.70;99.90;;;;;;4965769;29;20051;-58
2022/03/20 06:44:29;;;;;;;26.45;16.02;;;2.80;99.90;;;;;;4964641;29;20047;-58
2022/03/20 06:46:55;;;;;;;25.05;15.82;;;2.80;99.90;;;;;;4964321;29;20051;-58
2022/03/20 06:49:21;;;;;;;24.75;15.77;;;2.80;99.90;;;;;;4964844;29;20064;-62
2022/03/20 06:51:47;;;;;;;24.17;15.18;;;2.90;99.90;;;;;;4965310;28;20039;-57
2022/03/20 06:54:13;;;;;;;26.20;16.48;;;3.00;99.90;;;;;;4965481;28;20501;-57
2022/03/20 06:56:39;;;;;;;25.38;15.27;;;3.00;99.90;;;;;;4964728;29;20350;-57
2022/03/20 06:59:05;;;;;;;25.98;15.48;;;3.00;99.90;;;;;;4965828;29;20066;-58
2022/03/20 07:01:31;;;;;;;25.40;15.25;;;3.10;99.90;;;;;;4964202;28;20047;-57
2022/03/20 07:03:57;;;;;;;24.45;15.15;;;3.10;99.90;;;;;;4965483;29;20106;-55
2022/03/20 07:06:27;;;;;;;26.60;15.38;;;3.20;99.90;;;;;;4964515;28;20039;-57
2022/03/20 07:08:58;;;;;;;25.30;15.98;;;3.20;99.90;;;;;;4964973;29;20103;-57
2022/03/20 07:11:32;;;;;;;25.10;16.00;;;3.20;99.90;;;;;;4962200;28;20054;-57
2022/03/20 07:13:58;;;;;;;24.05;15.25;;;3.30;99.90;;;;;;4960389;28;20290;-58
2022/03/20 07:16:29;;;;;;;28.50;16.25;;;3.30;99.90;;;;;;4961473;28;20047;-57
2022/03/20 07:18:55;;;;;;;26.10;15.93;;;3.30;99.90;;;;;;4958939;29;20082;-57
2022/03/20 07:21:22;;;;;;;25.70;14.98;;;3.40;99.90;;;;;;4961382;29;20051;-57
2022/03/20 07:23:48;;;;;;;26.30;16.55;;;3.50;99.90;;;;;;4960538;28;20166;-57
2022/03/20 07:31:43;;;;;;;27.00;15.10;;;3.60;99.90;;;;;;4956286;29;20043;-57
2022/03/20 07:34:08;;;;;;;25.10;15.90;;;3.70;99.90;;;;;;4960954;28;20057;-57
2022/03/20 07:36:34;;;;;;;25.95;15.32;;;3.70;99.90;;;;;;4960344;29;20058;-57
2022/03/20 07:39:00;;;;;;;24.77;15.68;;;3.80;99.90;;;;;;4960427;29;20083;-58
2022/03/20 07:41:26;;;;;;;24.65;15.48;;;3.90;99.90;;;;;;4959737;29;20035;-57
2022/03/20 07:43:52;;;;;;;27.92;17.50;;;3.90;99.90;;;;;;4958955;28;20499;-58
2022/03/20 07:46:17;;;;;;;24.15;15.25;;;3.90;99.90;;;;;;4959492;28;20086;-57
2022/03/20 07:48:43;;;;;;;25.90;16.40;;;4.10;99.90;;;;;;4957523;29;20063;-58
2022/03/20 07:51:09;;;;;;;28.17;15.55;;;4.10;99.90;;;;;;4961206;28;20055;-57
2022/03/20 07:53:35;;;;;;;28.67;16.17;;;4.10;99.90;;;;;;4960190;29;20050;-57
2022/03/20 07:56:01;;;;;;;23.75;16.15;;;4.20;99.90;;;;;;4959115;29;20047;-58
2022/03/20 07:58:27;;;;;;;24.90;14.98;;;4.30;99.90;;;;;;4960133;29;20062;-57
2022/03/20 08:00:52;;;;;;;24.83;15.82;;;4.20;99.90;;;;;;4959666;28;20043;-58
2022/03/20 08:03:18;;;;;;;25.83;15.57;;;4.30;99.90;;;;;;4960672;29;20043;-58
2022/03/20 08:05:44;;;;;;;25.33;15.40;;;4.40;99.90;;;;;;4959599;29;20051;-57
2022/03/20 08:08:14;;;;;;;23.52;15.25;;;4.50;99.90;;;;;;4960650;29;20047;-58
2022/03/20 08:10:41;;;;;;;25.10;15.43;;;4.50;99.90;;;;;;4957962;29;20047;-57
2022/03/20 08:13:09;;;;;;;25.10;15.00;;;4.50;99.90;;;;;;4959936;28;20059;-57
2022/03/20 08:15:35;;;;;;;23.35;15.45;;;4.60;99.90;;;;;;4960030;28;20043;-58
2022/03/20 08:18:01;;;;;;;27.02;15.50;;;4.60;99.90;;;;;;4959560;28;20087;-57
2022/03/20 08:20:27;;;;;;;23.55;14.20;;;4.70;99.90;;;;;;4959955;29;20059;-56
2022/03/20 08:22:53;;;;;;;26.08;15.25;;;4.70;99.90;;;;;;4958661;28;20055;-58
2022/03/20 08:25:18;;;;;;;22.42;15.10;;;4.80;99.90;;;;;;4960454;29;20062;-57
2022/03/20 08:27:45;;;;;;;25.23;15.77;;;4.80;99.90;;;;;;4959353;29;20043;-58
2022/03/20 08:30:15;;;;;;;24.90;16.38;;;4.90;99.90;;;;;;4958557;29;20158;-58
2022/03/20 08:32:47;;;;;;;25.50;16.05;;;5.00;99.90;;;;;;4959894;28;20047;-57
2022/03/20 08:35:14;;;;;;;25.60;15.73;;;5.00;99.90;;;;;;4958794;28;20054;-58
2022/03/20 08:37:48;;;;;;;24.73;14.88;;;5.10;99.90;;;;;;4960209;28;20043;-57
2022/03/20 08:40:16;;;;;;;29.90;16.73;;;5.10;99.90;;;;;;4959153;28;20407;-57
2022/03/20 08:42:54;;;;;;;22.58;14.90;;;5.20;99.90;;;;;;4960141;28;20545;-58
2022/03/20 08:45:24;;;;;;;25.15;14.75;;;5.20;99.90;;;;;;4959486;28;20051;-58
2022/03/20 08:47:50;;;;;;;25.15;15.70;;;5.20;99.90;;;;;;4956851;29;20062;-58
2022/03/20 08:50:18;;;;;;;27.60;17.30;;;5.30;99.90;;;;;;4959757;28;20481;-58
2022/03/20 08:52:45;;;;;;;26.95;15.90;;;5.30;99.90;;;;;;4958846;28;20059;-58
2022/03/20 08:55:15;;;;;;;28.55;16.75;;;5.40;99.90;;;;;;4959535;28;20050;-58
2022/03/20 08:57:47;;;;;;;27.40;16.30;;;5.50;99.90;;;;;;4958872;28;20474;-58
2022/03/20 09:00:18;;;;;;;26.25;17.23;;;5.50;99.90;;;;;;4958857;28;20569;-58
2022/03/20 09:02:45;;;;;;;27.92;17.05;;;5.50;99.90;;;;;;4959208;28;20055;-58
2022/03/20 09:05:12;;;;;;;25.42;16.83;;;5.50;99.90;;;;;;4957223;29;20107;-58
2022/03/20 09:07:45;;;;;;;25.52;17.08;;;5.60;99.90;;;;;;4959661;28;20392;-58
2022/03/20 09:10:14;;;;;;;26.90;16.45;;;5.60;99.90;;;;;;4958194;28;20095;-57
2022/03/20 09:12:40;;;;;;;28.02;18.33;;;5.70;99.90;;;;;;4959067;28;20050;-58
2022/03/20 09:15:12;;;;;;;27.60;17.45;;;5.80;99.90;;;;;;4958858;28;20067;-58
2022/03/20 09:20:26;;;;;;;28.88;17.90;;;6.00;99.90;;;;;;4959250;29;20055;-58
2022/03/20 09:22:52;;;;;;;28.02;17.00;;;6.00;99.90;;;;;;4956576;28;20051;-58
2022/03/20 09:25:18;;;;;;;28.50;18.17;;;6.00;99.90;;;;;;4954709;29;20043;-58
2022/03/20 09:27:44;;;;;;;29.48;17.58;;;6.10;99.90;;;;;;4958024;29;20053;-57
2022/03/20 09:30:11;;;;;;;27.30;16.88;;;6.00;99.90;;;;;;4956347;29;20140;-58
2022/03/20 09:32:36;;;;;;;27.40;17.40;;;6.20;99.90;;;;;;4954492;29;20051;-58
2022/03/20 09:35:02;;;;;;;25.30;17.50;;;6.30;99.90;;;;;;4957343;29;20082;-58
2022/03/20 09:37:28;;;;;;;30.05;19.00;;;6.30;99.90;;;;;;4957597;28;20053;-58
2022/03/20 09:39:54;;;;;;;28.30;17.38;;;6.40;99.90;;;;;;4958021;29;20047;-57
2022/03/20 09:42:20;;;;;;;30.25;19.02;;;6.50;99.90;;;;;;4959257;29;20055;-57
2022/03/20 09:44:46;;;;;;;27.02;17.80;;;6.60;99.90;;;;;;4956524;29;20051;-57
2022/03/20 09:47:13;;;;;;;29.50;19.15;;;6.70;99.90;;;;;;4957782;29;20055;-58
2022/03/20 09:49:39;;;;;;;26.85;16.90;;;6.80;99.90;;;;;;4958291;29;20082;-58
2022/03/20 09:52:07;;;;;;;29.02;19.63;;;6.90;99.90;;;;;;4958033;29;20040;-58
2022/03/20 09:54:33;;;;;;;24.80;17.73;;;6.80;99.90;;;;;;4957886;29;20111;-58
2022/03/20 09:57:03;;;;;;;25.63;17.25;;;6.80;99.90;;;;;;4957328;29;20633;-58
2022/03/20 09:59:29;;;;;;;30.48;18.92;;;6.90;99.90;;;;;;4958324;28;20051;-58
2022/03/20 10:02:01;;;;;;;27.83;18.20;;;6.90;99.90;;;;;;4957040;29;20043;-58
2022/03/20 10:04:26;;;;;;;27.65;18.48;;;7.00;99.90;;;;;;4957904;29;20043;-58
2022/03/20 10:06:53;;;;;;;31.05;19.52;;;7.10;99.90;;;;;;4957147;29;20426;-58
2022/03/20 10:09:18;;;;;;;31.05;19.50;;;7.30;99.90;;;;;;4957596;28;20047;-58
2022/03/20 10:11:53;;;;;;;30.90;18.75;;;7.30;99.90;;;;;;4958144;29;20051;-58
2022/03/20 10:14:26;;;;;;;29.45;19.60;;;7.40;99.90;;;;;;4957500;28;20075;-58
2022/03/20 10:17:16;;;;;;;29.85;18.30;;;7.50;99.90;;;;;;4958327;28;20103;-58
2022/03/20 10:19:42;;;;;;;31.05;18.92;;;7.60;99.90;;;;;;4957914;28;20063;-58
2022/03/20 10:22:10;;;;;;;29.45;18.75;;;7.70;99.90;;;;;;4957196;28;20039;-58
2022/03/20 10:24:38;;;;;;;27.23;18.52;;;7.80;99.90;;;;;;4956679;29;20050;-57
2022/03/20 10:27:04;;;;;;;29.90;20.02;;;7.80;99.90;;;;;;4956890;29;20457;-58
2022/03/20 10:29:32;;;;;;;29.05;19.48;;;7.90;99.90;;;;;;4958482;29;20054;-58
2022/03/20 10:32:16;;;;;;;27.63;19.27;;;7.90;99.90;;;;;;4957179;29;20043;-58
2022/03/20 10:34:50;;;;;;;30.85;19.38;;;7.90;99.90;;;;;;4957301;29;20075;-57
2022/03/20 10:37:18;;;;;;;27.98;18.80;;;8.00;99.90;;;;;;4958033;29;20047;-57
2022/03/20 10:39:45;;;;;;;29.20;19.02;;;8.10;99.90;;;;;;4957049;28;20051;-58
2022/03/20 10:42:13;;;;;;;30.48;18.90;;;8.20;99.90;;;;;;4953859;29;20079;-57
2022/03/20 10:44:39;;;;;;;30.15;18.58;;;8.30;99.90;;;;;;4956834;29;20051;-58
2022/03/20 10:47:18;;;;;;;31.15;19.00;;;8.30;99.90;;;;;;4957246;29;20055;-58
2022/03/20 10:50:00;;;;;;;28.42;19.70;;;8.30;99.90;;;;;;4957609;29;20311;-58
2022/03/20 10:52:26;;;;;;;29.73;19.75;;;8.50;99.90;;;;;;4956432;29;20039;-58
2022/03/20 10:54:53;;;;;;;31.50;19.42;;;8.50;99.90;;;;;;4957671;28;20367;-57
2022/03/20 10:57:21;;;;;;;27.50;19.50;;;8.50;99.90;;;;;;4955956;29;20043;-58
2022/03/20 11:00:14;;;;;;;28.75;19.95;;;8.60;99.90;;;;;;4957263;29;20055;-58
2022/03/20 11:02:41;;;;;;;33.08;20.27;;;8.60;99.90;;;;;;4954855;29;20059;-57
2022/03/20 11:05:10;;;;;;;29.15;18.95;;;8.70;99.90;;;;;;4957093;28;20131;-58
2022/03/20 11:07:36;;;;;;;31.05;21.00;;;8.60;99.90;;;;;;4958079;29;20071;-58
2022/03/20 11:10:08;;;;;;;32.53;20.17;;;8.80;99.90;;;;;;4956647;28;20570;-58
2022/03/20 11:12:35;;;;;;;29.67;19.55;;;8.80;99.90;;;;;;4957367;28;20039;-57
2022/03/20 11:15:06;;;;;;;29.33;19.17;;;9.00;99.90;;;;;;4957202;28;20581;-58
2022/03/20 11:17:45;;;;;;;30.17;20.13;;;8.90;99.90;;;;;;4957936;28;20047;-57
2022/03/20 11:20:13;;;;;;;31.25;20.52;;;9.00;99.90;;;;;;4960987;28;20163;-58
2022/03/20 11:22:48;;;;;;;30.40;21.13;;;9.10;99.90;;;;;;4959676;28;20139;-57
2022/03/20 11:25:17;;;;;;;32.00;20.85;;;9.10;99.90;;;;;;4947265;28;20096;-58
2022/03/20 11:27:45;;;;;;;30.25;20.75;;;9.20;99.90;;;;;;4952368;28;20043;-58
2022/03/20 11:30:13;;;;;;;29.73;20.25;;;9.20;99.90;;;;;;4957644;28;20096;-58
2022/03/20 11:32:39;;;;;;;31.55;20.77;;;9.20;99.40;;;;;;4951087;29;20047;-60
2022/03/20 11:35:06;;;;;;;28.98;20.15;;;9.10;99.00;;;;;;4959533;28;20151;-58
2022/03/20 11:37:43;;;;;;;32.80;19.27;;;9.20;99.90;;;;;;4960690;28;20102;-58
2022/03/20 11:40:15;;;;;;;30.58;19.10;;;9.30;99.50;;;;;;4959538;28;20151;-57
2022/03/20 11:42:42;;;;;;;;;;;9.40;99.20;;;;;;4961138;28;20082;-56
2022/03/20 11:45:07;;;;;;;35.05;19.77;;;9.60;99.20;;;;;;4959810;28;19922;-57
2022/03/20 11:47:35;;;;;;;30.55;19.58;;;9.70;99.50;;;;;;4959221;29;20054;-58
2022/03/20 11:50:20;;;;;;;30.05;21.65;;;9.80;98.80;;;;;;4960319;28;20380;-58
2022/03/20 11:52:59;;;;;;;31.23;20.98;;;9.80;98.20;;;;;;4959451;29;20079;-58
2022/03/20 11:55:48;;;;;;;31.80;19.55;;;9.90;98.70;;;;;;4960763;29;20605;-58
2022/03/20 11:58:17;;;;;;;29.88;19.30;;;10.00;98.50;;;;;;4960179;28;20054;-58
2022/03/20 12:00:44;;;;;;;30.27;19.55;;;10.20;99.50;;;;;;4958915;29;20540;-58
2022/03/20 12:03:31;;;;;;;29.73;20.27;;;10.30;98.90;;;;;;4960594;28;20138;-58
2022/03/20 12:06:15;;;;;;;28.95;20.52;;;10.40;96.70;;;;;;4939934;29;20591;-58
2022/03/20 12:08:59;;;;;;;31.75;21.17;;;10.50;96.70;;;;;;4943936;29;20047;-58
2022/03/20 12:11:56;;;;;;;28.65;19.10;;;10.60;97.10;;;;;;4953118;29;20047;-58
2022/03/20 12:14:30;;;;;;;31.63;21.13;;;10.60;96.00;;;;;;4951238;29;20388;-58
2022/03/20 12:16:58;;;;;;;30.20;20.17;;;10.70;96.10;;;;;;4953227;29;20512;-58
2022/03/20 12:19:35;;;;;;;31.73;20.42;;;10.70;96.00;;;;;;4952115;29;20062;-57
2022/03/20 12:22:15;;;;;;;30.20;20.25;;;10.70;95.40;;;;;;4946016;29;20051;-58
2022/03/20 12:24:54;;;;;;;32.03;20.88;;;10.60;94.60;;;;;;4952441;29;20058;-58
2022/03/20 12:27:23;;;;;;;34.80;22.40;;;10.60;94.50;;;;;;4961067;29;20174;-58
2022/03/20 12:29:49;;;;;;;28.40;21.25;;;10.40;93.90;;;;;;4962608;28;20075;-57
2022/03/20 12:32:17;;;;;;;31.27;22.13;;;10.50;94.70;;;;;;4963127;28;20126;-58
2022/03/20 12:34:44;;;;;;;31.17;20.55;;;10.60;93.70;;;;;;4962569;28;20083;-59
2022/03/20 12:37:34;;;;;;;33.95;20.83;;;10.80;94.30;;;;;;4962115;28;20051;-57
2022/03/20 12:40:03;;;;;;;35.33;21.15;;;11.00;93.90;;;;;;4962083;28;20047;-58
2022/03/20 12:42:31;;;;;;;31.40;22.38;;;11.00;92.40;;;;;;4962719;29;20075;-58
2022/03/20 12:44:57;;;;;;;31.52;20.80;;;10.90;92.50;;;;;;4962729;28;20407;-57
2022/03/20 12:47:25;;;;;;;29.23;19.95;;;11.00;92.40;;;;;;4962383;28;20059;-59
2022/03/20 12:49:59;;;;;;;31.30;20.80;;;11.20;92.70;;;;;;4962747;28;20050;-58
2022/03/20 12:52:25;;;;;;;33.72;21.42;;;11.40;93.20;;;;;;4960268;29;20706;-58
2022/03/20 12:54:59;;;;;;;31.75;20.35;;;11.40;91.10;;;;;;4963087;29;20103;-56
2022/03/20 12:57:42;;;;;;;31.27;20.58;;;11.40;92.50;;;;;;4960742;29;20040;-58
2022/03/20 13:00:14;;;;;;;29.65;19.75;;;11.40;91.50;;;;;;4961483;29;20051;-57
2022/03/20 13:02:58;;;;;;;30.77;20.92;;;11.50;91.90;;;;;;4962433;28;20044;-58
2022/03/20 13:05:29;;;;;;;31.85;20.98;;;11.50;92.00;;;;;;4961943;28;20083;-57
2022/03/20 13:07:55;;;;;;;30.38;20.98;;;11.60;92.20;;;;;;4961614;29;20057;-57
2022/03/20 13:10:23;;;;;;;31.98;19.95;;;11.50;91.60;;;;;;4961747;28;20055;-57
2022/03/20 13:13:03;;;;;;;30.67;20.13;;;11.20;90.60;;;;;;4962228;28;20107;-59
2022/03/20 13:15:31;;;;;;;28.67;20.10;;;11.30;90.80;;;;;;4962103;28;20342;-60
2022/03/20 13:17:58;;;;;;;30.75;20.83;;;11.20;90.90;;;;;;4961949;28;20047;-60
2022/03/20 13:20:33;;;;;;;29.25;19.95;;;11.10;90.50;;;;;;4962615;28;20059;-60